createdAt,value
2018-11-22T00:03:50.274Z,40.00
2018-11-22T00:08:26.649Z,35.92
2018-11-22T00:13:03.091Z,38.95
2018-11-22T00:17:40.549Z,37.67
2018-11-22T00:22:16.944Z,38.63
2018-11-22T00:26:53.329Z,29.73
2018-11-22T00:31:29.729Z,35.85
2018-11-22T00:36:06.785Z,36.83
2018-11-22T00:40:43.170Z,38.08
2018-11-22T00:45:21.181Z,31.90
2018-11-22T00:49:57.573Z,33.15
2018-11-22T00:54:33.949Z,32.35
2018-11-22T00:59:10.359Z,29.07
2018-11-22T01:03:46.730Z,30.62
2018-11-22T01:08:23.130Z,27.98
2018-11-22T01:13:00.866Z,30.12
2018-11-22T01:17:37.259Z,27.77
2018-11-22T01:22:13.636Z,26.75
2018-11-22T01:26:50.040Z,29.20
2018-11-22T01:31:26.439Z,23.57
2018-11-22T01:36:02.845Z,26.82
2018-11-22T01:40:39.317Z,36.33
2018-11-22T01:45:17.614Z,34.75
2018-11-22T01:49:54.022Z,40.73
2018-11-22T01:54:30.433Z,44.93
2018-11-22T01:59:07.275Z,40.47
2018-11-22T02:03:43.669Z,42.30
2018-11-22T02:08:20.053Z,38.27
2018-11-22T02:12:56.461Z,33.90
2018-11-22T02:17:33.187Z,35.47
2018-11-22T02:22:09.594Z,38.53
2018-11-22T02:26:46.007Z,36.23
2018-11-22T02:31:22.425Z,40.38
2018-11-22T02:35:58.836Z,38.42
2018-11-22T02:40:35.241Z,31.23
2018-11-22T02:45:13.589Z,34.65
2018-11-22T02:49:49.982Z,34.23
2018-11-22T02:54:26.402Z,33.83
2018-11-22T02:59:03.165Z,34.00
2018-11-22T03:03:39.545Z,35.00
2018-11-22T03:08:15.992Z,30.75
2018-11-22T03:12:52.377Z,26.80
2018-11-22T03:17:28.789Z,30.00
2018-11-22T03:22:05.253Z,28.77
2018-11-22T03:26:41.653Z,25.70
2018-11-22T03:31:18.052Z,26.48
2018-11-22T03:35:54.489Z,29.12
2018-11-22T03:40:30.869Z,27.07
2018-11-22T03:45:08.707Z,24.15
2018-11-22T03:49:45.105Z,23.57
2018-11-22T03:54:21.513Z,25.12
2018-11-22T03:58:58.255Z,28.87
2018-11-22T04:03:34.657Z,28.83
2018-11-22T04:08:11.037Z,32.08
2018-11-22T04:12:47.466Z,28.35
2018-11-22T04:17:23.846Z,32.50
2018-11-22T04:22:00.238Z,32.35
2018-11-22T04:26:36.633Z,30.82
2018-11-22T04:31:13.034Z,31.43
2018-11-22T04:35:49.623Z,38.38
2018-11-22T04:40:27.825Z,33.75
2018-11-22T04:45:04.220Z,39.00
2018-11-22T04:49:41.180Z,32.67
2018-11-22T04:54:17.599Z,33.42
2018-11-22T04:58:54.545Z,34.05
2018-11-22T05:03:31.228Z,35.38
2018-11-22T05:08:07.672Z,33.67
2018-11-22T05:12:44.781Z,34.55
2018-11-22T05:17:21.192Z,36.17
2018-11-22T05:21:57.585Z,40.03
2018-11-22T05:26:33.998Z,33.42
2018-11-22T05:31:10.377Z,36.43
2018-11-22T05:35:46.785Z,33.73
2018-11-22T05:40:24.909Z,32.23
2018-11-22T05:45:01.325Z,32.47
2018-11-22T05:49:37.696Z,34.85
2018-11-22T05:54:14.085Z,40.05
2018-11-22T05:58:50.464Z,40.55
2018-11-22T06:03:26.902Z,39.03
2018-11-22T06:08:03.514Z,37.10
2018-11-22T06:12:40.736Z,43.08
2018-11-22T06:17:17.113Z,38.00
2018-11-22T06:21:53.529Z,40.63
2018-11-22T06:26:29.910Z,46.63
2018-11-22T06:31:06.753Z,40.13
2018-11-22T06:35:43.172Z,40.95
2018-11-22T06:40:20.228Z,40.70
2018-11-22T06:44:57.093Z,38.90
2018-11-22T06:49:33.506Z,41.23
2018-11-22T06:54:09.903Z,37.27
2018-11-22T06:58:46.298Z,38.67
2018-11-22T07:03:22.685Z,37.70
2018-11-22T07:08:00.578Z,36.07
2018-11-22T07:12:36.953Z,39.97
2018-11-22T07:17:14.037Z,36.77
2018-11-22T07:21:50.149Z,37.80
2018-11-22T07:26:26.641Z,43.37
2018-11-22T07:31:03.091Z,46.50
2018-11-22T07:35:40.061Z,37.95
2018-11-22T07:40:22.662Z,35.95
2018-11-22T07:44:59.223Z,39.45
2018-11-22T07:49:35.738Z,66.28
2018-11-22T07:54:12.132Z,62.07
2018-11-22T07:58:48.584Z,59.00
2018-11-22T08:03:25.009Z,50.78
2018-11-22T08:08:01.412Z,41.60
2018-11-22T08:12:38.755Z,40.23
2018-11-22T08:17:15.521Z,41.30
2018-11-22T08:21:51.945Z,53.33
2018-11-22T08:26:28.360Z,56.20
2018-11-22T08:31:04.823Z,46.48
2018-11-22T08:35:41.215Z,43.27
2018-11-22T08:40:22.521Z,41.42
2018-11-22T08:45:00.815Z,45.63
2018-11-22T08:49:37.373Z,38.23
2018-11-22T08:54:14.125Z,42.43
2018-11-22T08:58:52.070Z,45.67
2018-11-22T09:03:29.357Z,46.48
2018-11-22T09:08:06.247Z,42.90
2018-11-22T09:12:42.667Z,46.93
2018-11-22T09:17:19.102Z,50.80
2018-11-22T09:21:55.505Z,45.23
2018-11-22T09:26:32.008Z,49.53
2018-11-22T09:31:08.649Z,42.37
2018-11-22T09:35:45.169Z,47.97
2018-11-22T09:40:23.266Z,49.70
2018-11-22T09:44:59.667Z,48.63
2018-11-22T09:49:36.055Z,51.40
2018-11-22T09:54:12.498Z,43.23
2018-11-22T09:58:48.909Z,46.42
2018-11-22T10:03:25.640Z,49.83
2018-11-22T10:08:02.019Z,46.55
2018-11-22T10:12:38.944Z,45.17
2018-11-22T10:17:15.622Z,43.10
2018-11-22T10:21:52.059Z,44.20
2018-11-22T10:26:28.459Z,45.70
2018-11-22T10:31:05.085Z,45.38
2018-11-22T10:35:41.471Z,42.53
2018-11-22T10:40:22.331Z,42.40
2018-11-22T10:44:58.724Z,42.08
2018-11-22T10:49:35.174Z,36.93
2018-11-22T10:54:11.554Z,41.85
2018-11-22T10:58:48.004Z,39.45
2018-11-22T11:03:41.735Z,40.43
2018-11-22T11:08:20.188Z,35.98
2018-11-22T11:12:56.577Z,37.15
2018-11-22T11:17:33.012Z,40.23
2018-11-22T11:22:09.413Z,40.52
2018-11-22T11:26:45.849Z,41.25
2018-11-22T11:31:22.261Z,33.05
2018-11-22T11:35:58.676Z,42.13
2018-11-22T11:40:36.977Z,33.35
2018-11-22T11:45:13.382Z,30.85
2018-11-22T11:49:49.776Z,34.75
2018-11-22T11:54:26.173Z,32.63
2018-11-22T11:59:02.580Z,29.80
2018-11-22T12:03:39.196Z,34.15
2018-11-22T12:08:15.569Z,38.78
2018-11-22T12:12:52.124Z,30.12
2018-11-22T12:17:28.505Z,33.50
2018-11-22T12:22:04.902Z,36.85
2018-11-22T12:26:41.332Z,30.48
2018-11-22T12:31:17.742Z,38.53
2018-11-22T12:36:11.898Z,35.73
2018-11-22T12:40:48.357Z,39.33
2018-11-22T12:45:25.153Z,37.53
2018-11-22T12:50:02.552Z,39.60
2018-11-22T12:54:40.532Z,43.50
2018-11-22T12:59:17.018Z,35.90
2018-11-22T13:03:53.449Z,32.95
2018-11-22T13:08:29.875Z,32.25
2018-11-22T13:13:06.780Z,30.10
2018-11-22T13:17:43.180Z,40.03
2018-11-22T13:22:19.554Z,32.95
2018-11-22T13:26:56.097Z,29.67
2018-11-22T13:31:32.489Z,32.95
2018-11-22T13:36:08.892Z,32.13
2018-11-22T13:40:45.287Z,31.20
2018-11-22T13:45:24.912Z,31.20
2018-11-22T13:50:01.303Z,37.58
2018-11-22T13:54:37.695Z,32.60
2018-11-22T13:59:14.120Z,37.40
2018-11-22T14:03:50.533Z,36.03
2018-11-22T14:08:27.027Z,33.05
2018-11-22T14:13:03.441Z,48.13
2018-11-22T14:17:40.268Z,36.58
2018-11-22T14:22:16.672Z,50.90
2018-11-22T14:26:53.045Z,40.38
2018-11-22T14:31:29.442Z,39.48
2018-11-22T14:36:05.812Z,34.85
2018-11-22T14:40:42.235Z,41.70
2018-11-22T14:45:18.601Z,34.05
2018-11-22T14:49:54.999Z,36.00
2018-11-22T14:54:31.383Z,43.33
2018-11-22T14:59:07.789Z,39.73
2018-11-22T15:03:44.172Z,38.55
2018-11-22T15:08:20.575Z,31.35
2018-11-22T15:12:56.957Z,36.25
2018-11-22T15:17:33.747Z,40.38
2018-11-22T15:22:10.144Z,40.80
2018-11-22T15:26:46.585Z,47.20
2018-11-22T15:31:23.004Z,38.30
2018-11-22T15:35:59.474Z,37.25
2018-11-22T15:40:35.875Z,37.38
2018-11-22T15:45:14.371Z,37.48
2018-11-22T15:49:51.645Z,41.75
2018-11-22T15:54:28.224Z,45.65
2018-11-22T15:59:04.614Z,34.40
2018-11-22T16:03:41.127Z,41.73
2018-11-22T16:08:17.523Z,43.83
2018-11-22T16:12:58.800Z,39.73
2018-11-22T16:17:35.180Z,39.00
2018-11-22T16:22:11.593Z,48.05
2018-11-22T16:26:47.990Z,38.02
2018-11-22T16:31:24.375Z,42.27
2018-11-22T16:36:00.752Z,32.75
2018-11-22T16:40:37.185Z,45.25
2018-11-22T16:45:31.430Z,39.90
2018-11-22T16:50:09.368Z,39.05
2018-11-22T16:54:45.737Z,34.25
2018-11-22T16:59:22.124Z,52.62
2018-11-22T17:03:58.496Z,31.77
2018-11-22T17:08:34.892Z,41.40
2018-11-22T17:13:12.075Z,44.67
2018-11-22T17:17:49.213Z,39.10
2018-11-22T17:22:25.584Z,37.67
2018-11-22T17:27:01.980Z,37.55
2018-11-22T17:31:38.354Z,30.88
2018-11-22T17:36:14.747Z,30.92
2018-11-22T17:40:52.284Z,35.85
2018-11-22T17:45:30.428Z,41.73
2018-11-22T17:50:08.848Z,38.63
2018-11-22T17:54:45.249Z,32.85
2018-11-22T17:59:22.303Z,48.67
2018-11-22T18:03:58.703Z,52.20
2018-11-22T18:08:35.067Z,54.93
2018-11-22T18:13:11.473Z,50.23
2018-11-22T18:17:48.667Z,44.13
2018-11-22T18:22:25.283Z,39.23
2018-11-22T18:27:01.661Z,38.90
2018-11-22T18:31:38.077Z,39.83
2018-11-22T18:36:14.453Z,40.88
2018-11-22T18:40:50.872Z,33.53
2018-11-22T18:45:44.967Z,34.58
2018-11-22T18:50:22.877Z,24.40
2018-11-22T18:54:59.261Z,26.00
2018-11-22T18:59:35.669Z,36.80
2018-11-22T19:04:12.412Z,41.57
2018-11-22T19:08:48.811Z,36.30
2018-11-22T19:13:25.205Z,32.45
2018-11-22T19:18:02.166Z,37.73
2018-11-22T19:22:38.548Z,45.43
2018-11-22T19:27:15.367Z,34.23
2018-11-22T19:31:51.822Z,36.65
2018-11-22T19:36:28.804Z,33.20
2018-11-22T19:41:05.195Z,29.72
2018-11-22T19:45:43.530Z,32.10
2018-11-22T19:50:21.824Z,33.85
2018-11-22T19:54:58.793Z,43.87
2018-11-22T19:59:35.812Z,28.27
2018-11-22T20:04:14.776Z,30.85
2018-11-22T20:08:51.689Z,32.50
2018-11-22T20:18:12.607Z,34.83
2018-11-22T20:22:48.992Z,34.60
2018-11-22T20:27:25.382Z,35.23
2018-11-22T20:32:01.788Z,32.60
2018-11-22T20:36:38.688Z,29.18
2018-11-22T20:41:15.157Z,28.60
2018-11-22T20:45:51.539Z,28.95
2018-11-22T20:50:28.747Z,31.52
2018-11-22T20:55:05.597Z,25.02
2018-11-22T20:59:41.998Z,24.75
2018-11-22T21:04:18.384Z,25.77
2018-11-22T21:08:54.798Z,31.15
2018-11-22T21:13:31.246Z,30.82
2018-11-22T21:18:09.196Z,32.80
2018-11-22T21:22:45.992Z,35.17
2018-11-22T21:27:22.504Z,25.13
2018-11-22T21:31:58.888Z,30.97
2018-11-22T21:36:38.082Z,91.42
2018-11-22T21:41:14.464Z,76.60
2018-11-22T21:45:50.848Z,51.37
2018-11-22T21:50:28.377Z,37.03
2018-11-22T21:55:04.789Z,28.65
2018-11-22T21:59:41.180Z,31.87
2018-11-22T22:04:17.576Z,22.23
2018-11-22T22:08:53.985Z,20.82
2018-11-22T22:13:30.384Z,22.55
2018-11-22T22:18:08.195Z,20.97
2018-11-22T22:22:44.596Z,20.97
2018-11-22T22:27:20.981Z,31.27
2018-11-22T22:31:58.176Z,34.90
2018-11-22T22:36:34.563Z,28.90
2018-11-22T22:41:10.948Z,30.33
2018-11-22T22:45:47.329Z,39.97
2018-11-22T22:50:25.317Z,38.83
2018-11-22T22:55:01.696Z,32.80
2018-11-22T22:59:38.075Z,32.43
2018-11-22T23:04:14.457Z,30.40
2018-11-22T23:08:50.848Z,33.63
2018-11-22T23:13:27.288Z,40.37
2018-11-22T23:18:03.734Z,43.63
2018-11-22T23:22:40.864Z,52.70
2018-11-22T23:27:17.250Z,38.73
2018-11-22T23:31:54.033Z,44.63
2018-11-22T23:36:30.424Z,61.60
2018-11-22T23:41:07.230Z,42.90
2018-11-22T23:45:43.629Z,41.97
2018-11-22T23:50:30.542Z,39.70
2018-11-22T23:55:07.924Z,44.13
2018-11-22T23:59:44.296Z,41.67
